createdAt,value
2022-12-14T00:01:49.091Z,92.70
2022-12-14T00:04:16.397Z,91.32
2022-12-14T00:06:43.347Z,92.35
2022-12-14T00:09:10.057Z,94.77
2022-12-14T00:11:37.090Z,91.75
2022-12-14T00:14:11.939Z,92.42
2022-12-14T00:16:39.716Z,91.89
2022-12-14T00:19:07.444Z,92.33
2022-12-14T00:21:35.342Z,93.60
2022-12-14T00:24:03.223Z,97.70
2022-12-14T00:26:31.999Z,97.52
2022-12-14T00:29:00.868Z,100.00
2022-12-14T00:31:28.432Z,98.11
2022-12-14T00:33:59.078Z,98.50
2022-12-14T00:36:26.712Z,98.14
2022-12-14T00:38:53.895Z,99.88
2022-12-14T00:41:21.277Z,100.00
2022-12-14T00:43:49.474Z,93.52
2022-12-14T00:46:17.699Z,92.60
2022-12-14T00:48:45.039Z,93.30
2022-12-14T00:51:14.822Z,92.71
2022-12-14T00:53:42.222Z,91.00
2022-12-14T00:56:09.405Z,92.40
2022-12-14T00:58:40.106Z,94.01
2022-12-14T01:01:08.915Z,92.66
2022-12-14T01:03:37.610Z,93.16
2022-12-14T01:06:04.585Z,93.80
2022-12-14T01:08:36.602Z,95.78
2022-12-14T01:11:07.473Z,96.45
2022-12-14T01:13:35.682Z,96.27
2022-12-14T01:16:08.310Z,89.21
2022-12-14T01:18:36.451Z,92.11
2022-12-14T01:21:15.667Z,91.26
2022-12-14T01:23:44.257Z,89.20
2022-12-14T01:26:12.643Z,90.76
2022-12-14T01:28:43.820Z,91.21
2022-12-14T01:31:18.527Z,88.60
2022-12-14T01:33:46.235Z,90.04
2022-12-14T01:36:18.400Z,92.44
2022-12-14T01:38:47.110Z,91.57
2022-12-14T01:41:36.824Z,93.54
2022-12-14T01:44:10.308Z,90.46
2022-12-14T01:46:39.439Z,90.50
2022-12-14T01:49:16.817Z,90.94
2022-12-14T01:51:47.966Z,91.24
2022-12-14T01:54:15.710Z,90.73
2022-12-14T01:56:44.795Z,92.95
2022-12-14T01:59:17.476Z,95.52
2022-12-14T02:01:44.662Z,93.57
2022-12-14T02:04:16.136Z,92.83
2022-12-14T02:06:44.338Z,93.94
2022-12-14T02:09:15.587Z,97.10
2022-12-14T02:11:54.552Z,96.11
2022-12-14T02:14:21.505Z,98.11
2022-12-14T02:16:51.606Z,94.76
2022-12-14T02:19:19.052Z,94.99
2022-12-14T02:22:24.874Z,92.53
2022-12-14T02:25:13.469Z,93.29
2022-12-14T02:28:25.388Z,90.99
2022-12-14T02:30:57.800Z,89.78
2022-12-14T02:33:54.871Z,91.16
2022-12-14T02:36:31.875Z,91.87
2022-12-14T02:39:18.278Z,93.55
2022-12-14T02:41:49.061Z,96.14
2022-12-14T02:44:18.379Z,93.75
2022-12-14T02:47:03.698Z,92.00
2022-12-14T02:49:55.682Z,89.73
2022-12-14T02:52:50.080Z,96.81
2022-12-14T02:55:26.391Z,93.65
2022-12-14T02:57:56.394Z,92.93
2022-12-14T03:00:24.716Z,90.45
2022-12-14T03:02:52.041Z,90.11
2022-12-14T03:05:19.038Z,89.48
2022-12-14T03:07:56.638Z,89.51
2022-12-14T03:10:48.890Z,91.38
2022-12-14T03:13:20.173Z,91.23
2022-12-14T03:15:52.675Z,91.22
2022-12-14T03:18:21.862Z,91.24
2022-12-14T03:20:50.172Z,86.88
2022-12-14T03:23:21.395Z,86.24
2022-12-14T03:26:04.493Z,85.84
2022-12-14T03:28:42.371Z,85.34
2022-12-14T03:31:17.923Z,87.23
2022-12-14T03:33:46.928Z,85.76
2022-12-14T03:36:29.119Z,86.97
2022-12-14T03:39:07.303Z,85.96
2022-12-14T03:42:17.043Z,87.43
2022-12-14T03:45:18.910Z,89.92
2022-12-14T03:47:51.745Z,89.71
2022-12-14T03:50:31.033Z,85.75
2022-12-14T03:53:00.429Z,85.00
2022-12-14T03:55:30.615Z,86.29
2022-12-14T03:58:03.637Z,86.58
2022-12-14T04:00:32.772Z,87.72
2022-12-14T04:03:09.466Z,91.43
2022-12-14T04:05:48.945Z,92.23
2022-12-14T04:08:40.139Z,91.58
2022-12-14T04:11:27.063Z,91.06
2022-12-14T04:14:39.752Z,89.13
2022-12-14T04:17:32.691Z,86.66
2022-12-14T04:20:10.457Z,85.44
2022-12-14T04:22:46.142Z,85.22
2022-12-14T04:25:39.711Z,86.67
2022-12-14T04:28:33.890Z,85.44
2022-12-14T04:31:05.091Z,85.16
2022-12-14T04:33:47.022Z,86.68
2022-12-14T04:36:28.163Z,87.08
2022-12-14T04:39:02.277Z,85.36
2022-12-14T04:41:34.354Z,86.52
2022-12-14T04:44:07.041Z,85.70
2022-12-14T04:46:40.598Z,88.02
2022-12-14T04:49:29.560Z,87.62
2022-12-14T04:52:06.278Z,87.38
2022-12-14T04:54:44.028Z,87.21
2022-12-14T04:57:24.936Z,85.27
2022-12-14T04:59:53.175Z,87.22
2022-12-14T05:02:31.818Z,89.79
2022-12-14T05:05:18.136Z,89.76
2022-12-14T05:07:53.357Z,90.08
2022-12-14T05:10:48.146Z,88.64
2022-12-14T05:13:37.731Z,87.35
2022-12-14T05:16:05.061Z,84.52
2022-12-14T05:18:34.824Z,85.87
2022-12-14T05:21:01.643Z,88.75
2022-12-14T05:23:29.646Z,87.73
2022-12-14T05:25:57.286Z,87.11
2022-12-14T05:28:27.089Z,88.04
2022-12-14T05:30:54.546Z,86.94
2022-12-14T05:33:21.809Z,86.56
2022-12-14T05:35:48.911Z,86.42
2022-12-14T05:38:15.984Z,84.37
2022-12-14T05:40:43.136Z,85.47
2022-12-14T05:43:12.515Z,85.97
2022-12-14T05:45:39.694Z,84.63
2022-12-14T05:48:06.773Z,84.76
2022-12-14T05:50:33.618Z,86.69
2022-12-14T05:53:00.496Z,87.40
2022-12-14T05:55:27.276Z,88.76
2022-12-14T05:57:54.393Z,87.25
2022-12-14T06:00:23.687Z,86.09
2022-12-14T06:02:52.388Z,85.70
2022-12-14T06:05:19.309Z,87.24
2022-12-14T06:07:46.284Z,88.89
2022-12-14T06:10:13.328Z,87.45
2022-12-14T06:12:50.414Z,86.95
2022-12-14T06:15:17.353Z,84.83
2022-12-14T06:17:45.199Z,86.33
2022-12-14T06:20:13.697Z,85.18
2022-12-14T06:22:47.241Z,85.68
2022-12-14T06:25:15.041Z,87.14
2022-12-14T06:27:42.244Z,86.80
2022-12-14T06:30:09.993Z,86.30
2022-12-14T06:32:36.855Z,87.50
2022-12-14T06:35:04.573Z,87.07
2022-12-14T06:37:32.003Z,88.28
2022-12-14T06:39:59.073Z,91.41
2022-12-14T06:42:26.839Z,90.77
2022-12-14T06:45:19.189Z,90.57
2022-12-14T06:47:46.022Z,90.01
2022-12-14T06:50:12.881Z,88.55
2022-12-14T06:52:43.669Z,88.72
2022-12-14T06:55:10.496Z,87.13
2022-12-14T06:57:37.663Z,88.08
2022-12-14T07:00:04.893Z,88.38
2022-12-14T07:02:31.890Z,87.66
2022-12-14T07:04:58.760Z,88.04
2022-12-14T07:07:25.638Z,87.08
2022-12-14T07:09:52.526Z,87.87
2022-12-14T07:12:23.706Z,86.95
2022-12-14T07:14:50.666Z,86.97
2022-12-14T07:17:18.357Z,86.82
2022-12-14T07:19:45.286Z,87.82
2022-12-14T07:22:16.107Z,88.28
2022-12-14T07:24:43.505Z,88.59
2022-12-14T07:27:10.546Z,88.58
2022-12-14T07:29:38.036Z,89.73
2022-12-14T07:32:05.440Z,91.78
2022-12-14T07:34:32.734Z,91.07
2022-12-14T07:37:00.824Z,92.92
2022-12-14T07:39:27.862Z,92.50
2022-12-14T07:41:54.919Z,91.62
2022-12-14T07:44:29.392Z,93.31
2022-12-14T07:46:56.499Z,93.86
2022-12-14T07:49:23.956Z,93.74
2022-12-14T07:51:52.573Z,95.62
2022-12-14T07:54:19.695Z,95.77
2022-12-14T07:56:48.141Z,94.35
2022-12-14T07:59:16.768Z,95.11
2022-12-14T08:01:44.465Z,96.24
2022-12-14T08:04:16.512Z,96.41
2022-12-14T08:06:44.343Z,97.77
2022-12-14T08:09:12.482Z,97.46
2022-12-14T08:11:40.184Z,98.58
2022-12-14T08:14:11.381Z,96.88
2022-12-14T08:16:38.819Z,97.10
2022-12-14T08:19:05.791Z,97.34
2022-12-14T08:21:32.987Z,95.84
2022-12-14T08:24:00.057Z,97.44
2022-12-14T08:26:33.525Z,98.74
2022-12-14T08:29:04.579Z,98.29
2022-12-14T08:31:31.921Z,98.94
2022-12-14T08:34:00.858Z,98.00
2022-12-14T08:36:30.022Z,96.92
2022-12-14T08:38:59.484Z,98.85
2022-12-14T08:41:27.583Z,97.79
2022-12-14T08:43:58.057Z,97.75
2022-12-14T08:46:28.076Z,95.67
2022-12-14T08:48:55.664Z,95.72
2022-12-14T08:51:30.111Z,94.46
2022-12-14T08:53:57.236Z,93.63
2022-12-14T08:56:28.481Z,93.23
2022-12-14T08:58:57.033Z,91.43
2022-12-14T09:01:32.143Z,89.54
2022-12-14T09:04:08.195Z,88.80
2022-12-14T09:06:38.028Z,87.42
2022-12-14T09:09:16.061Z,87.00
2022-12-14T09:11:44.703Z,84.54
2022-12-14T09:14:12.235Z,81.84
2022-12-14T09:16:45.407Z,76.17
2022-12-14T09:19:12.701Z,69.75
2022-12-14T09:21:40.142Z,71.66
2022-12-14T09:24:07.205Z,77.89
2022-12-14T09:26:34.331Z,79.31
2022-12-14T09:29:01.419Z,83.51
2022-12-14T09:31:28.750Z,84.18
2022-12-14T09:33:55.786Z,84.94
2022-12-14T09:36:25.936Z,85.36
2022-12-14T09:38:55.503Z,85.28
2022-12-14T09:41:34.839Z,81.39
2022-12-14T09:44:34.606Z,80.06
2022-12-14T09:47:23.166Z,80.06
2022-12-14T09:50:04.583Z,81.61
2022-12-14T09:52:37.205Z,82.63
2022-12-14T09:55:28.425Z,81.95
2022-12-14T09:58:29.043Z,82.23
2022-12-14T10:01:09.053Z,83.13
2022-12-14T10:03:51.602Z,85.25
2022-12-14T10:06:28.513Z,85.93
2022-12-14T10:09:13.757Z,85.13
2022-12-14T10:11:53.839Z,84.45
2022-12-14T10:14:30.369Z,84.30
2022-12-14T10:17:12.129Z,84.83
2022-12-14T10:19:57.491Z,88.87
2022-12-14T10:22:46.429Z,87.99
2022-12-14T10:25:19.013Z,90.92
2022-12-14T10:28:10.514Z,90.90
2022-12-14T10:30:38.476Z,91.46
2022-12-14T10:33:23.830Z,93.65
2022-12-14T10:35:54.261Z,92.39
2022-12-14T10:38:32.077Z,91.56
2022-12-14T10:41:15.595Z,91.62
2022-12-14T10:44:03.889Z,92.84
2022-12-14T10:46:55.976Z,89.74
2022-12-14T10:49:29.586Z,90.15
2022-12-14T10:52:04.376Z,89.59
2022-12-14T10:54:34.375Z,90.01
2022-12-14T10:57:01.499Z,90.20
2022-12-14T10:59:39.741Z,89.21
2022-12-14T11:02:25.901Z,89.84
2022-12-14T11:05:09.693Z,91.77
2022-12-14T11:07:43.584Z,89.61
2022-12-14T11:10:20.977Z,89.80
2022-12-14T11:13:17.933Z,88.39
2022-12-14T11:15:49.627Z,86.40
2022-12-14T11:18:16.555Z,87.47
2022-12-14T11:20:52.469Z,85.59
2022-12-14T11:23:29.451Z,84.42
2022-12-14T11:26:01.319Z,87.60
2022-12-14T11:28:41.581Z,89.79
2022-12-14T11:31:11.555Z,86.27
2022-12-14T11:33:40.987Z,84.03
2022-12-14T11:36:11.547Z,83.45
2022-12-14T11:42:04.833Z,88.07
2022-12-14T11:44:36.470Z,85.14
2022-12-14T11:47:08.564Z,81.69
2022-12-14T11:49:44.052Z,83.59
2022-12-14T11:52:19.885Z,83.56
2022-12-14T11:54:54.234Z,83.55
2022-12-14T11:57:35.043Z,82.65
2022-12-14T12:00:10.539Z,84.02
2022-12-14T12:02:46.905Z,82.70
2022-12-14T12:05:16.659Z,83.39
2022-12-14T12:07:49.661Z,84.27
2022-12-14T12:10:24.079Z,83.57
2022-12-14T12:13:00.086Z,83.05
2022-12-14T12:15:35.334Z,83.51
2022-12-14T12:18:06.068Z,84.91
2022-12-14T12:20:40.701Z,83.63
2022-12-14T12:23:13.715Z,83.95
2022-12-14T12:25:42.225Z,82.80
2022-12-14T12:28:26.455Z,81.97
2022-12-14T12:30:59.159Z,81.46
2022-12-14T12:33:59.311Z,80.91
2022-12-14T12:36:27.066Z,80.94
2022-12-14T12:39:06.003Z,81.59
2022-12-14T12:41:34.250Z,80.26
2022-12-14T12:44:13.321Z,79.88
2022-12-14T12:47:22.385Z,79.86
2022-12-14T12:49:38.051Z,79.81
2022-12-14T12:52:09.476Z,79.78
2022-12-14T12:54:41.606Z,76.69
2022-12-14T12:57:11.950Z,76.68
2022-12-14T12:59:50.983Z,75.77
2022-12-14T13:02:20.816Z,77.38
2022-12-14T13:04:52.828Z,79.43
2022-12-14T13:07:43.576Z,77.76
2022-12-14T13:10:18.267Z,76.66
2022-12-14T13:12:53.065Z,76.48
2022-12-14T13:15:26.872Z,74.33
2022-12-14T13:18:04.350Z,73.44
2022-12-14T13:20:33.636Z,73.39
2022-12-14T13:23:28.274Z,70.98
2022-12-14T13:26:08.431Z,70.64
2022-12-14T13:28:49.872Z,71.97
2022-12-14T13:31:26.055Z,72.42
2022-12-14T13:33:59.113Z,72.80
2022-12-14T13:36:26.086Z,72.78
2022-12-14T13:39:11.761Z,71.40
2022-12-14T13:41:48.776Z,71.71
2022-12-14T13:44:18.723Z,71.15
2022-12-14T13:46:46.017Z,69.47
2022-12-14T13:49:21.376Z,71.68
2022-12-14T13:51:50.070Z,71.65
2022-12-14T13:54:30.164Z,70.88
2022-12-14T13:57:06.326Z,71.03
2022-12-14T13:59:42.108Z,70.88
2022-12-14T14:02:27.854Z,71.94
2022-12-14T14:05:15.054Z,72.81
2022-12-14T14:08:01.618Z,74.76
2022-12-14T14:10:33.776Z,73.17
2022-12-14T14:13:02.674Z,72.85
2022-12-14T14:16:18.809Z,72.49
2022-12-14T14:18:36.381Z,73.20
2022-12-14T14:21:12.331Z,72.65
2022-12-14T14:23:56.345Z,72.92
2022-12-14T14:26:35.183Z,72.93
2022-12-14T14:29:19.522Z,73.97
2022-12-14T14:31:54.227Z,73.68
2022-12-14T14:34:27.141Z,74.00
2022-12-14T14:36:57.571Z,73.11
2022-12-14T14:39:55.704Z,73.66
2022-12-14T14:42:24.694Z,72.99
2022-12-14T14:44:55.091Z,72.71
2022-12-14T14:47:26.941Z,74.74
2022-12-14T14:50:21.596Z,75.56
2022-12-14T14:53:18.189Z,76.95
2022-12-14T14:55:53.641Z,75.21
2022-12-14T14:58:26.107Z,74.34
2022-12-14T15:01:11.120Z,74.17
2022-12-14T15:03:47.305Z,73.51
2022-12-14T15:06:21.506Z,73.41
2022-12-14T15:09:05.456Z,74.08
2022-12-14T15:11:51.685Z,75.70
2022-12-14T15:14:46.711Z,74.37
2022-12-14T15:17:21.867Z,74.97
2022-12-14T15:19:50.554Z,74.21
2022-12-14T15:22:40.587Z,76.09
2022-12-14T15:25:11.818Z,73.83
2022-12-14T15:27:39.771Z,74.59
2022-12-14T15:30:22.581Z,75.00
2022-12-14T15:33:04.083Z,75.35
2022-12-14T15:35:34.765Z,75.10
2022-12-14T15:38:04.023Z,76.16
2022-12-14T15:40:32.402Z,76.92
2022-12-14T15:43:01.488Z,75.71
2022-12-14T15:45:31.460Z,76.06
2022-12-14T15:48:23.963Z,74.66
2022-12-14T15:50:59.297Z,75.76
2022-12-14T15:53:29.329Z,76.01
2022-12-14T15:56:02.929Z,76.40
2022-12-14T15:58:37.757Z,76.94
2022-12-14T16:01:22.922Z,77.12
2022-12-14T16:03:53.051Z,77.38
2022-12-14T16:06:20.882Z,78.10
2022-12-14T16:09:01.887Z,80.18
2022-12-14T16:11:36.152Z,79.25
2022-12-14T16:14:26.281Z,79.76
2022-12-14T16:16:53.508Z,81.26
2022-12-14T16:19:33.700Z,81.46
2022-12-14T16:22:15.705Z,82.31
2022-12-14T16:25:19.055Z,80.99
2022-12-14T16:27:50.916Z,81.39
2022-12-14T16:30:22.076Z,81.80
2022-12-14T16:33:08.342Z,82.04
2022-12-14T16:35:37.607Z,81.86
2022-12-14T16:38:08.636Z,82.46
2022-12-14T16:40:38.230Z,81.98
2022-12-14T16:43:06.852Z,81.89
2022-12-14T16:45:36.699Z,82.21
2022-12-14T16:48:09.703Z,82.78
2022-12-14T16:53:31.677Z,82.04
2022-12-14T16:56:06.402Z,83.08
2022-12-14T16:58:33.823Z,84.19
2022-12-14T17:01:10.912Z,83.28
2022-12-14T17:03:38.362Z,83.11
2022-12-14T17:06:06.717Z,83.52
2022-12-14T17:08:34.229Z,84.34
2022-12-14T17:11:02.244Z,85.69
2022-12-14T17:13:30.119Z,84.53
2022-12-14T17:16:06.557Z,84.51
2022-12-14T17:18:38.003Z,84.92
2022-12-14T17:21:06.436Z,83.23
2022-12-14T17:23:34.247Z,82.58
2022-12-14T17:26:56.099Z,85.12
2022-12-14T17:29:29.774Z,83.80
2022-12-14T17:31:58.026Z,83.15
2022-12-14T17:34:25.435Z,84.67
2022-12-14T17:36:52.497Z,83.50
2022-12-14T17:39:20.561Z,84.12
2022-12-14T17:41:48.564Z,84.59
2022-12-14T17:44:17.795Z,84.28
2022-12-14T17:46:46.803Z,86.24
2022-12-14T17:49:14.508Z,84.84
2022-12-14T17:51:45.008Z,86.29
2022-12-14T17:54:21.516Z,86.37
2022-12-14T17:56:51.774Z,85.24
2022-12-14T17:59:18.680Z,84.47
2022-12-14T18:01:45.533Z,85.36
2022-12-14T18:04:14.035Z,84.99
2022-12-14T18:06:41.270Z,87.52
2022-12-14T18:09:09.392Z,86.98
2022-12-14T18:11:39.204Z,90.48
2022-12-14T18:14:14.008Z,88.42
2022-12-14T18:16:40.757Z,87.61
2022-12-14T18:19:11.183Z,91.99
2022-12-14T18:21:38.228Z,91.06
2022-12-14T18:24:10.859Z,91.40
2022-12-14T18:26:41.735Z,88.93
2022-12-14T18:29:08.572Z,89.40
2022-12-14T18:31:38.202Z,88.41
2022-12-14T18:34:05.462Z,92.11
2022-12-14T18:36:33.310Z,94.04
2022-12-14T18:39:00.386Z,96.49
2022-12-14T18:41:29.742Z,92.22
2022-12-14T18:43:57.147Z,91.71
2022-12-14T18:46:24.623Z,91.65
2022-12-14T18:48:51.847Z,92.35
2022-12-14T18:51:27.030Z,91.88
2022-12-14T18:53:56.886Z,90.88
2022-12-14T18:56:51.974Z,91.13
2022-12-14T18:59:21.471Z,92.63
2022-12-14T19:01:54.514Z,92.90
2022-12-14T19:04:23.698Z,92.37
2022-12-14T19:06:50.861Z,91.39
2022-12-14T19:09:18.309Z,91.12
2022-12-14T19:11:47.054Z,92.99
2022-12-14T19:14:15.477Z,92.90
2022-12-14T19:16:42.874Z,90.64
2022-12-14T19:19:10.102Z,90.26
2022-12-14T19:22:02.618Z,90.30
2022-12-14T19:24:29.885Z,90.42
2022-12-14T19:26:57.027Z,89.79
2022-12-14T19:29:24.131Z,91.58
2022-12-14T19:31:54.207Z,91.81
2022-12-14T19:34:21.954Z,95.25
2022-12-14T19:36:48.736Z,96.75
2022-12-14T19:39:15.774Z,99.33
2022-12-14T19:41:42.948Z,100.00
2022-12-14T19:44:10.213Z,100.00
2022-12-14T19:46:37.108Z,100.00
2022-12-14T19:49:06.154Z,100.00
2022-12-14T19:51:33.879Z,100.00
2022-12-14T19:54:03.059Z,100.00
2022-12-14T19:56:30.036Z,100.00
2022-12-14T19:59:01.001Z,100.00
2022-12-14T20:01:43.319Z,100.00
2022-12-14T20:04:16.572Z,100.00
2022-12-14T20:06:45.285Z,100.00
2022-12-14T20:09:16.903Z,100.00
2022-12-14T20:11:44.564Z,100.00
2022-12-14T20:14:12.690Z,100.00
2022-12-14T20:16:40.671Z,100.00
2022-12-14T20:19:08.898Z,100.00
2022-12-14T20:21:36.036Z,100.00
2022-12-14T20:24:16.977Z,100.00
2022-12-14T20:26:44.385Z,100.00
2022-12-14T20:29:12.017Z,100.00
2022-12-14T20:31:38.958Z,100.00
2022-12-14T20:34:08.805Z,100.00
2022-12-14T20:36:35.861Z,100.00
2022-12-14T20:39:05.553Z,100.00
2022-12-14T20:41:35.388Z,100.00
2022-12-14T20:44:02.619Z,100.00
2022-12-14T20:46:35.052Z,100.00
2022-12-14T20:49:05.282Z,100.00
2022-12-14T20:51:34.358Z,100.00
2022-12-14T20:54:05.249Z,100.00
2022-12-14T20:56:32.204Z,100.00
2022-12-14T20:58:58.973Z,100.00
2022-12-14T21:01:27.874Z,100.00
2022-12-14T21:03:57.745Z,100.00
2022-12-14T21:06:25.180Z,100.00
2022-12-14T21:09:10.538Z,100.00
2022-12-14T21:11:59.153Z,100.00
2022-12-14T21:14:35.071Z,100.00
2022-12-14T21:17:05.259Z,100.00
2022-12-14T21:19:33.378Z,100.00
2022-12-14T21:22:00.683Z,100.00
2022-12-14T21:27:20.002Z,100.00
2022-12-14T21:29:48.765Z,100.00
2022-12-14T21:32:16.090Z,100.00
2022-12-14T21:34:43.402Z,100.00
2022-12-14T21:37:10.773Z,100.00
2022-12-14T21:39:37.911Z,100.00
2022-12-14T21:42:13.225Z,100.00
2022-12-14T21:44:44.732Z,100.00
2022-12-14T21:47:18.110Z,100.00
2022-12-14T21:49:46.401Z,100.00
2022-12-14T21:52:20.850Z,100.00
2022-12-14T21:54:48.062Z,100.00
2022-12-14T21:57:35.460Z,100.00
2022-12-14T22:00:04.775Z,100.00
2022-12-14T22:02:40.009Z,100.00
2022-12-14T22:05:08.459Z,100.00
2022-12-14T22:07:35.363Z,99.35
2022-12-14T22:10:02.462Z,95.97
2022-12-14T22:12:29.860Z,94.26
2022-12-14T22:14:57.017Z,93.99
2022-12-14T22:17:24.031Z,95.18
2022-12-14T22:19:52.183Z,97.40
2022-12-14T22:22:19.079Z,100.00
2022-12-14T22:24:48.541Z,100.00
2022-12-14T22:27:18.669Z,100.00
2022-12-14T22:29:45.721Z,100.00
2022-12-14T22:32:15.988Z,100.00
2022-12-14T22:34:45.593Z,100.00
2022-12-14T22:37:16.735Z,100.00
2022-12-14T22:39:43.666Z,100.00
2022-12-14T22:42:10.665Z,100.00
2022-12-14T22:44:38.370Z,100.00
2022-12-14T22:47:05.214Z,100.00
2022-12-14T22:49:32.091Z,100.00
2022-12-14T22:51:59.123Z,100.00
2022-12-14T22:54:27.682Z,99.11
2022-12-14T22:57:02.356Z,98.54
2022-12-14T22:59:37.698Z,96.44
2022-12-14T23:02:05.353Z,96.00
2022-12-14T23:04:32.263Z,95.71
2022-12-14T23:06:59.277Z,99.37
2022-12-14T23:09:44.939Z,98.27
2022-12-14T23:12:30.364Z,98.04
2022-12-14T23:15:15.878Z,99.89
2022-12-14T23:18:01.497Z,100.00
2022-12-14T23:20:46.932Z,100.00
2022-12-14T23:23:41.586Z,100.00
2022-12-14T23:26:29.231Z,99.91
2022-12-14T23:29:15.038Z,100.00
2022-12-14T23:32:01.274Z,99.60
2022-12-14T23:34:47.862Z,97.00
2022-12-14T23:37:33.424Z,94.73
2022-12-14T23:40:18.984Z,100.00
2022-12-14T23:43:04.400Z,100.00
2022-12-14T23:45:49.712Z,99.22
2022-12-14T23:48:35.478Z,100.00
2022-12-14T23:51:21.490Z,100.00
2022-12-14T23:54:06.791Z,98.15
2022-12-14T23:56:52.964Z,95.78
2022-12-14T23:59:38.489Z,100.00
